createdAt,value
2023-04-14T00:01:24.476Z,6.90
2023-04-14T00:03:53.006Z,6.90
2023-04-14T00:06:21.078Z,6.90
2023-04-14T00:08:49.047Z,6.90
2023-04-14T00:11:18.378Z,6.90
2023-04-14T00:13:46.328Z,6.80
2023-04-14T00:16:14.342Z,6.80
2023-04-14T00:18:42.549Z,6.80
2023-04-14T00:21:10.566Z,6.80
2023-04-14T00:23:38.439Z,6.80
2023-04-14T00:26:06.827Z,6.80
2023-04-14T00:28:36.150Z,6.80
2023-04-14T00:31:04.079Z,6.80
2023-04-14T00:33:33.097Z,6.80
2023-04-14T00:36:02.802Z,6.80
2023-04-14T00:38:31.460Z,6.80
2023-04-14T00:40:59.446Z,6.80
2023-04-14T00:43:27.369Z,6.70
2023-04-14T00:45:56.920Z,6.70
2023-04-14T00:48:24.933Z,6.70
2023-04-14T00:50:53.043Z,6.70
2023-04-14T00:53:21.612Z,6.70
2023-04-14T00:55:49.857Z,6.70
2023-04-14T00:58:17.908Z,6.70
2023-04-14T01:00:52.290Z,6.70
2023-04-14T01:03:21.966Z,6.70
2023-04-14T01:05:49.986Z,6.70
2023-04-14T01:08:19.470Z,6.70
2023-04-14T01:10:57.758Z,6.70
2023-04-14T01:13:36.653Z,6.70
2023-04-14T01:16:10.918Z,6.70
2023-04-14T01:18:48.317Z,6.70
2023-04-14T01:21:21.741Z,6.70
2023-04-14T01:24:06.345Z,6.70
2023-04-14T01:26:35.426Z,6.60
2023-04-14T01:29:31.460Z,6.60
2023-04-14T01:32:05.634Z,6.50
2023-04-14T01:34:42.988Z,6.50
2023-04-14T01:37:15.922Z,6.40
2023-04-14T01:39:49.460Z,6.40
2023-04-14T01:42:23.019Z,6.30
2023-04-14T01:44:57.596Z,6.20
2023-04-14T01:47:28.727Z,6.10
2023-04-14T01:49:57.695Z,6.00
2023-04-14T01:52:27.683Z,5.90
2023-04-14T01:54:58.626Z,5.90
2023-04-14T01:57:30.188Z,5.90
2023-04-14T02:00:00.381Z,5.80
2023-04-14T02:02:31.439Z,5.80
2023-04-14T02:05:03.784Z,5.70
2023-04-14T02:07:34.521Z,5.60
2023-04-14T02:10:04.345Z,5.50
2023-04-14T02:12:33.359Z,5.40
2023-04-14T02:15:02.559Z,5.30
2023-04-14T02:17:32.320Z,5.30
2023-04-14T02:20:01.336Z,5.40
2023-04-14T02:22:29.315Z,5.30
2023-04-14T02:24:57.319Z,5.20
2023-04-14T02:27:32.147Z,5.10
2023-04-14T02:30:08.022Z,5.00
2023-04-14T02:32:40.675Z,4.90
2023-04-14T02:35:13.757Z,4.80
2023-04-14T02:37:44.987Z,4.70
2023-04-14T02:40:16.939Z,4.70
2023-04-14T02:42:49.045Z,4.60
2023-04-14T02:45:23.033Z,4.40
2023-04-14T02:47:57.866Z,4.30
2023-04-14T02:50:28.073Z,4.20
2023-04-14T02:53:07.093Z,4.10
2023-04-14T02:55:38.908Z,4.10
2023-04-14T02:58:07.274Z,4.10
2023-04-14T03:00:40.890Z,4.00
2023-04-14T03:03:12.862Z,4.00
2023-04-14T03:05:41.827Z,3.90
2023-04-14T03:08:13.269Z,3.90
2023-04-14T03:10:46.378Z,3.90
2023-04-14T03:13:17.805Z,4.00
2023-04-14T03:15:46.732Z,4.00
2023-04-14T03:18:19.658Z,4.00
2023-04-14T03:20:50.165Z,3.90
2023-04-14T03:23:20.288Z,3.80
2023-04-14T03:25:55.155Z,3.80
2023-04-14T03:28:32.689Z,3.80
2023-04-14T03:31:05.990Z,3.70
2023-04-14T03:33:47.063Z,3.60
2023-04-14T03:36:18.938Z,3.60
2023-04-14T03:38:49.895Z,3.60
2023-04-14T03:41:22.135Z,3.60
2023-04-14T03:43:54.632Z,3.60
2023-04-14T03:46:23.985Z,3.60
2023-04-14T03:48:54.608Z,3.50
2023-04-14T03:51:27.484Z,3.50
2023-04-14T03:53:58.148Z,3.50
2023-04-14T03:56:27.777Z,3.40
2023-04-14T03:58:58.343Z,3.30
2023-04-14T04:01:27.944Z,3.30
2023-04-14T04:04:01.780Z,3.30
2023-04-14T04:06:30.140Z,3.30
2023-04-14T04:09:00.534Z,3.20
2023-04-14T04:11:29.692Z,3.20
2023-04-14T04:13:59.666Z,3.20
2023-04-14T04:16:30.342Z,3.20
2023-04-14T04:19:01.207Z,3.20
2023-04-14T04:21:33.564Z,3.10
2023-04-14T04:24:03.024Z,3.10
2023-04-14T04:26:31.256Z,3.10
2023-04-14T04:29:01.158Z,3.10
2023-04-14T04:31:30.519Z,3.20
2023-04-14T04:34:00.676Z,3.20
2023-04-14T04:36:29.468Z,3.30
2023-04-14T04:38:58.632Z,3.30
2023-04-14T04:41:29.391Z,3.30
2023-04-14T04:44:00.212Z,3.40
2023-04-14T04:46:45.293Z,3.30
2023-04-14T04:49:14.767Z,3.30
2023-04-14T04:51:43.860Z,3.40
2023-04-14T04:54:11.907Z,3.30
2023-04-14T04:56:39.917Z,3.40
2023-04-14T04:59:07.882Z,3.40
2023-04-14T05:01:36.049Z,3.30
2023-04-14T05:04:04.231Z,3.40
2023-04-14T05:06:37.014Z,3.30
2023-04-14T05:09:05.543Z,3.30
2023-04-14T05:11:33.875Z,3.20
2023-04-14T05:14:01.850Z,3.20
2023-04-14T05:16:30.001Z,3.20
2023-04-14T05:18:57.933Z,3.20
2023-04-14T05:21:25.990Z,3.40
2023-04-14T05:23:55.672Z,3.50
2023-04-14T05:28:54.805Z,3.60
2023-04-14T05:31:23.187Z,3.70
2023-04-14T05:33:51.274Z,3.70
2023-04-14T05:36:19.254Z,3.80
2023-04-14T05:38:47.186Z,3.90
2023-04-14T05:41:16.669Z,3.90
2023-04-14T05:43:44.632Z,4.00
2023-04-14T05:46:12.583Z,4.00
2023-04-14T05:48:40.513Z,4.20
2023-04-14T05:51:08.510Z,4.30
2023-04-14T05:53:36.524Z,4.40
2023-04-14T05:56:04.707Z,4.60
2023-04-14T05:58:33.995Z,4.70
2023-04-14T06:01:03.933Z,4.90
2023-04-14T06:03:32.093Z,5.10
2023-04-14T06:06:00.342Z,5.20
2023-04-14T06:08:30.068Z,5.30
2023-04-14T06:10:58.078Z,5.40
2023-04-14T06:13:26.004Z,5.50
2023-04-14T06:15:56.000Z,5.50
2023-04-14T06:18:23.918Z,5.60
2023-04-14T06:20:51.818Z,5.80
2023-04-14T06:23:21.482Z,5.90
2023-04-14T06:25:49.639Z,6.00
2023-04-14T06:28:18.686Z,6.20
2023-04-14T06:30:46.682Z,6.40
2023-04-14T06:33:15.993Z,6.50
2023-04-14T06:35:45.201Z,6.70
2023-04-14T06:38:13.106Z,6.80
2023-04-14T06:40:41.185Z,6.90
2023-04-14T06:43:10.848Z,7.00
2023-04-14T06:45:39.312Z,7.10
2023-04-14T06:48:07.965Z,7.30
2023-04-14T06:50:37.361Z,7.50
2023-04-14T06:53:06.354Z,7.50
2023-04-14T06:55:36.636Z,7.70
2023-04-14T06:58:04.747Z,7.80
2023-04-14T07:00:32.776Z,7.90
2023-04-14T07:03:00.821Z,8.10
2023-04-14T07:05:28.873Z,8.20
2023-04-14T07:07:58.146Z,8.40
2023-04-14T07:10:26.206Z,8.50
2023-04-14T07:12:54.250Z,8.60
2023-04-14T07:15:22.190Z,8.70
2023-04-14T07:17:50.228Z,8.80
2023-04-14T07:20:18.546Z,8.90
2023-04-14T07:22:46.569Z,8.90
2023-04-14T07:25:16.036Z,9.00
2023-04-14T07:27:56.216Z,9.10
2023-04-14T07:30:28.484Z,9.20
2023-04-14T07:32:56.821Z,9.20
2023-04-14T07:35:26.062Z,9.20
2023-04-14T07:37:54.096Z,9.20
2023-04-14T07:40:23.557Z,9.40
2023-04-14T07:42:51.662Z,9.50
2023-04-14T07:45:19.823Z,9.60
2023-04-14T07:47:47.780Z,9.70
2023-04-14T07:50:17.738Z,9.80
2023-04-14T07:52:47.214Z,9.90
2023-04-14T07:55:15.168Z,10.00
2023-04-14T07:57:44.634Z,10.00
2023-04-14T08:00:13.671Z,10.00
2023-04-14T08:02:41.689Z,10.10
2023-04-14T08:05:09.894Z,10.10
2023-04-14T08:07:38.630Z,10.20
2023-04-14T08:10:07.451Z,10.30
2023-04-14T08:12:35.469Z,10.30
2023-04-14T08:15:05.380Z,10.30
2023-04-14T08:17:33.573Z,10.30
2023-04-14T08:20:01.679Z,10.30
2023-04-14T08:22:29.636Z,10.40
2023-04-14T08:24:57.508Z,10.50
2023-04-14T08:27:25.664Z,10.60
2023-04-14T08:29:54.134Z,10.60
2023-04-14T08:32:23.621Z,10.60
2023-04-14T08:35:37.168Z,10.80
2023-04-14T08:37:39.557Z,10.90
2023-04-14T08:40:11.290Z,11.00
2023-04-14T08:42:39.338Z,11.00
2023-04-14T08:45:08.493Z,11.00
2023-04-14T08:47:40.857Z,10.90
2023-04-14T08:50:14.370Z,11.00
2023-04-14T08:52:43.147Z,11.00
2023-04-14T08:55:13.004Z,11.00
2023-04-14T08:57:43.596Z,11.10
2023-04-14T09:00:13.015Z,11.30
2023-04-14T09:02:43.281Z,11.40
2023-04-14T09:05:12.561Z,11.50
2023-04-14T09:07:42.719Z,11.70
2023-04-14T09:10:12.652Z,11.70
2023-04-14T09:12:42.083Z,11.90
2023-04-14T09:15:12.463Z,12.10
2023-04-14T09:17:42.081Z,12.40
2023-04-14T09:20:35.108Z,12.30
2023-04-14T09:22:59.486Z,12.40
2023-04-14T09:25:28.064Z,12.50
2023-04-14T09:27:56.264Z,12.70
2023-04-14T09:30:24.408Z,13.10
2023-04-14T09:32:54.570Z,13.20
2023-04-14T09:35:22.594Z,13.10
2023-04-14T09:37:50.679Z,13.20
2023-04-14T09:40:31.670Z,13.40
2023-04-14T09:42:59.724Z,13.70
2023-04-14T09:45:42.969Z,14.10
2023-04-14T09:48:13.837Z,14.20
2023-04-14T09:50:58.121Z,14.30
2023-04-14T09:53:27.854Z,14.60
2023-04-14T09:55:56.262Z,14.70
2023-04-14T09:58:27.261Z,14.80
2023-04-14T10:00:57.271Z,14.90
2023-04-14T10:03:38.109Z,15.00
2023-04-14T10:06:10.638Z,14.90
2023-04-14T10:08:41.012Z,15.10
2023-04-14T10:11:17.008Z,15.20
2023-04-14T10:13:45.858Z,15.30
2023-04-14T10:16:14.556Z,15.40
2023-04-14T10:18:44.073Z,15.50
2023-04-14T10:21:12.570Z,15.70
2023-04-14T10:23:42.189Z,15.90
2023-04-14T10:26:11.993Z,16.20
2023-04-14T10:28:44.648Z,16.40
2023-04-14T10:31:16.100Z,16.20
2023-04-14T10:33:45.580Z,16.40
2023-04-14T10:36:13.816Z,16.60
2023-04-14T10:38:43.520Z,17.10
2023-04-14T10:41:12.594Z,17.30
2023-04-14T10:43:41.667Z,17.30
2023-04-14T10:46:11.263Z,17.30
2023-04-14T10:48:41.395Z,17.60
2023-04-14T10:51:11.860Z,17.90
2023-04-14T10:53:46.278Z,17.70
2023-04-14T10:56:14.736Z,17.90
2023-04-14T10:58:54.430Z,18.30
2023-04-14T11:01:26.411Z,18.60
2023-04-14T11:03:56.295Z,18.40
2023-04-14T11:06:51.670Z,18.40
2023-04-14T11:09:37.912Z,18.60
2023-04-14T11:12:23.035Z,18.70
2023-04-14T11:14:51.532Z,18.70
2023-04-14T11:17:22.104Z,18.50
2023-04-14T11:19:54.012Z,18.30
2023-04-14T11:22:41.904Z,18.50
2023-04-14T11:25:13.062Z,18.80
2023-04-14T11:27:41.673Z,18.90
2023-04-14T11:30:14.875Z,18.90
2023-04-14T11:32:51.185Z,18.80
2023-04-14T11:35:20.298Z,19.10
2023-04-14T11:37:49.706Z,19.20
2023-04-14T11:40:17.686Z,19.10
2023-04-14T11:42:48.028Z,19.20
2023-04-14T11:45:16.505Z,18.80
2023-04-14T11:47:56.724Z,19.00
2023-04-14T11:50:24.888Z,19.00
2023-04-14T11:52:55.327Z,18.80
2023-04-14T11:55:24.768Z,18.90
2023-04-14T11:57:52.833Z,19.40
2023-04-14T12:00:20.974Z,19.80
2023-04-14T12:02:49.489Z,19.70
2023-04-14T12:05:25.444Z,19.50
2023-04-14T12:08:00.662Z,19.20
2023-04-14T12:10:29.253Z,19.40
2023-04-14T12:13:01.617Z,19.70
2023-04-14T12:15:30.400Z,20.10
2023-04-14T12:17:59.064Z,20.10
2023-04-14T12:20:27.563Z,20.30
2023-04-14T12:23:03.770Z,20.60
2023-04-14T12:25:33.943Z,20.10
2023-04-14T12:28:05.920Z,19.50
2023-04-14T12:30:34.139Z,20.00
2023-04-14T12:33:09.693Z,20.40
2023-04-14T12:35:37.603Z,21.10
2023-04-14T12:38:13.414Z,21.50
2023-04-14T12:40:43.870Z,21.40
2023-04-14T12:43:12.102Z,21.70
2023-04-14T12:45:44.198Z,21.80
2023-04-14T12:48:13.744Z,22.20
2023-04-14T12:50:41.754Z,22.70
2023-04-14T12:53:28.402Z,22.20
2023-04-14T12:56:07.924Z,22.10
2023-04-14T12:58:36.634Z,22.10
2023-04-14T13:01:06.100Z,22.30
2023-04-14T13:03:41.826Z,22.50
2023-04-14T13:06:11.326Z,22.20
2023-04-14T13:08:43.659Z,22.50
2023-04-14T13:11:12.096Z,22.50
2023-04-14T13:13:40.043Z,22.40
2023-04-14T13:16:13.026Z,21.70
2023-04-14T13:18:43.579Z,21.00
2023-04-14T13:21:11.701Z,21.10
2023-04-14T13:23:41.695Z,21.60
2023-04-14T13:26:09.704Z,22.00
2023-04-14T13:28:37.736Z,22.50
2023-04-14T13:31:06.297Z,22.30
2023-04-14T13:33:34.655Z,22.30
2023-04-14T13:36:03.210Z,22.50
2023-04-14T13:38:31.722Z,23.00
2023-04-14T13:41:01.189Z,23.00
2023-04-14T13:43:29.900Z,22.90
2023-04-14T13:45:59.048Z,22.80
2023-04-14T13:48:27.300Z,23.40
2023-04-14T13:50:55.918Z,23.60
2023-04-14T13:53:24.218Z,23.20
2023-04-14T13:55:52.296Z,23.10
2023-04-14T13:58:22.766Z,22.80
2023-04-14T14:00:50.702Z,23.10
2023-04-14T14:03:18.788Z,23.20
2023-04-14T14:05:46.783Z,23.00
2023-04-14T14:08:15.814Z,23.40
2023-04-14T14:10:43.952Z,23.80
2023-04-14T14:13:11.913Z,24.70
2023-04-14T14:15:41.271Z,25.60
2023-04-14T14:18:09.448Z,26.00
2023-04-14T14:20:37.410Z,26.20
2023-04-14T14:23:05.408Z,26.30
2023-04-14T14:25:33.405Z,26.00
2023-04-14T14:28:01.365Z,26.10
2023-04-14T14:30:29.422Z,25.30
2023-04-14T14:32:58.795Z,24.50
2023-04-14T14:35:26.850Z,24.50
2023-04-14T14:37:54.872Z,24.40
2023-04-14T14:40:23.026Z,24.70
2023-04-14T14:42:51.892Z,24.90
2023-04-14T14:45:30.307Z,25.40
2023-04-14T14:48:01.373Z,25.00
2023-04-14T14:50:29.449Z,25.40
2023-04-14T14:52:57.695Z,25.00
2023-04-14T14:55:25.695Z,23.80
2023-04-14T14:57:53.664Z,23.50
2023-04-14T15:00:21.769Z,23.80
2023-04-14T15:02:50.036Z,24.30
2023-04-14T15:05:19.836Z,23.90
2023-04-14T15:07:47.709Z,23.10
2023-04-14T15:10:16.302Z,22.90
2023-04-14T15:12:44.441Z,23.60
2023-04-14T15:15:13.009Z,24.20
2023-04-14T15:17:41.094Z,24.80
2023-04-14T15:20:10.084Z,25.40
2023-04-14T15:22:39.540Z,25.90
2023-04-14T15:25:09.134Z,26.20
2023-04-14T15:27:37.479Z,26.00
2023-04-14T15:30:06.785Z,25.30
2023-04-14T15:32:34.752Z,24.30
2023-04-14T15:35:02.965Z,23.70
2023-04-14T15:37:31.086Z,23.40
2023-04-14T15:40:01.335Z,23.70
2023-04-14T15:42:29.345Z,23.70
2023-04-14T15:44:57.399Z,23.70
2023-04-14T15:47:25.442Z,23.70
2023-04-14T15:50:10.010Z,24.10
2023-04-14T15:52:39.425Z,24.30
2023-04-14T15:55:10.687Z,24.60
2023-04-14T15:57:38.744Z,23.80
2023-04-14T16:00:08.360Z,22.60
2023-04-14T16:02:42.968Z,21.50
2023-04-14T16:05:11.698Z,21.00
2023-04-14T16:07:40.244Z,21.70
2023-04-14T16:10:10.345Z,22.50
2023-04-14T16:12:38.764Z,23.40
2023-04-14T16:15:08.660Z,23.60
2023-04-14T16:17:36.584Z,23.90
2023-04-14T16:20:05.530Z,24.10
2023-04-14T16:22:34.222Z,24.70
2023-04-14T16:25:02.267Z,25.10
2023-04-14T16:27:31.752Z,24.90
2023-04-14T16:29:59.725Z,24.60
2023-04-14T16:32:29.667Z,23.50
2023-04-14T16:34:58.014Z,22.20
2023-04-14T16:37:27.585Z,21.10
2023-04-14T16:39:55.919Z,19.80
2023-04-14T16:42:25.045Z,19.00
2023-04-14T16:44:54.898Z,18.40
2023-04-14T16:47:23.841Z,18.00
2023-04-14T16:49:51.980Z,17.70
2023-04-14T16:52:20.160Z,17.50
2023-04-14T16:54:48.038Z,17.40
2023-04-14T16:57:16.302Z,17.30
2023-04-14T16:59:46.076Z,17.00
2023-04-14T17:02:15.621Z,16.90
2023-04-14T17:04:43.986Z,16.60
2023-04-14T17:07:12.476Z,16.60
2023-04-14T17:09:40.549Z,16.60
2023-04-14T17:12:08.590Z,16.60
2023-04-14T17:14:37.256Z,16.20
2023-04-14T17:17:05.370Z,16.20
2023-04-14T17:19:34.940Z,16.10
2023-04-14T17:22:03.522Z,16.10
2023-04-14T17:24:31.675Z,16.10
2023-04-14T17:27:00.531Z,15.90
2023-04-14T17:29:28.728Z,15.90
2023-04-14T17:31:56.883Z,15.90
2023-04-14T17:34:25.514Z,15.90
2023-04-14T17:36:56.037Z,15.90
2023-04-14T17:39:26.725Z,15.80
2023-04-14T17:41:56.147Z,15.70
2023-04-14T17:44:30.718Z,15.30
2023-04-14T17:47:00.930Z,15.20
2023-04-14T17:49:29.325Z,15.00
2023-04-14T17:51:58.870Z,14.80
2023-04-14T17:54:27.377Z,14.80
2023-04-14T17:56:56.698Z,14.60
2023-04-14T17:59:24.933Z,14.40
2023-04-14T18:01:53.345Z,14.20
2023-04-14T18:04:21.811Z,14.20
2023-04-14T18:06:50.147Z,14.00
2023-04-14T18:09:19.562Z,14.00
2023-04-14T18:11:47.958Z,13.90
2023-04-14T18:14:16.085Z,13.80
2023-04-14T18:16:44.175Z,13.70
2023-04-14T18:19:12.260Z,13.60
2023-04-14T18:21:40.649Z,13.50
2023-04-14T18:26:42.717Z,13.20
2023-04-14T18:29:10.798Z,13.10
2023-04-14T18:31:38.777Z,12.90
2023-04-14T18:34:09.318Z,12.80
2023-04-14T18:36:37.886Z,12.60
2023-04-14T18:39:07.032Z,12.30
2023-04-14T18:41:35.161Z,12.10
2023-04-14T18:44:04.411Z,11.80
2023-04-14T18:46:32.543Z,11.60
2023-04-14T18:49:00.809Z,11.30
2023-04-14T18:51:29.008Z,11.10
2023-04-14T18:53:56.988Z,10.90
2023-04-14T18:56:26.030Z,10.90
2023-04-14T18:58:55.754Z,10.90
2023-04-14T19:01:25.065Z,10.90
2023-04-14T19:03:54.420Z,10.80
2023-04-14T19:06:22.905Z,10.70
2023-04-14T19:08:50.881Z,10.50
2023-04-14T19:11:20.297Z,10.50
2023-04-14T19:13:48.229Z,10.30
2023-04-14T19:16:17.808Z,10.20
2023-04-14T19:18:47.464Z,10.20
2023-04-14T19:21:15.468Z,10.10
2023-04-14T19:23:43.434Z,9.90
2023-04-14T19:26:13.412Z,9.80
2023-04-14T19:28:42.420Z,9.70
2023-04-14T19:31:10.723Z,9.60
2023-04-14T19:33:39.213Z,9.50
2023-04-14T19:36:14.205Z,9.30
2023-04-14T19:38:42.367Z,9.20
2023-04-14T19:41:10.629Z,9.10
2023-04-14T19:43:38.658Z,9.00
2023-04-14T19:46:08.018Z,8.90
2023-04-14T19:48:36.065Z,8.80
2023-04-14T19:51:04.136Z,8.70
2023-04-14T19:53:33.559Z,8.60
2023-04-14T19:56:02.112Z,8.50
2023-04-14T19:58:31.274Z,8.40
2023-04-14T20:01:00.991Z,8.40
2023-04-14T20:03:29.652Z,8.40
2023-04-14T20:05:58.935Z,8.30
2023-04-14T20:08:27.530Z,8.30
2023-04-14T20:10:57.589Z,8.20
2023-04-14T20:13:27.670Z,8.20
2023-04-14T20:15:56.208Z,8.10
2023-04-14T20:18:25.947Z,8.00
2023-04-14T20:20:54.768Z,7.90
2023-04-14T20:23:22.808Z,7.80
2023-04-14T20:25:51.481Z,7.60
2023-04-14T20:28:23.088Z,7.50
2023-04-14T20:30:52.646Z,7.40
2023-04-14T20:33:21.640Z,7.40
2023-04-14T20:35:51.448Z,7.40
2023-04-14T20:38:19.441Z,7.30
2023-04-14T20:40:47.766Z,7.20
2023-04-14T20:43:15.764Z,7.10
2023-04-14T20:45:45.560Z,7.10
2023-04-14T20:48:13.612Z,7.10
2023-04-14T20:50:41.628Z,7.10
2023-04-14T20:53:09.981Z,7.00
2023-04-14T20:55:41.046Z,6.90
2023-04-14T20:58:09.141Z,6.90
2023-04-14T21:00:37.096Z,6.90
2023-04-14T21:03:06.530Z,6.90
2023-04-14T21:05:34.651Z,6.90
2023-04-14T21:08:02.692Z,6.80
2023-04-14T21:10:30.615Z,6.70
2023-04-14T21:15:26.678Z,6.50
2023-04-14T21:15:52.735Z,6.40
2023-04-14T21:18:25.949Z,6.30
2023-04-14T21:20:53.857Z,6.30
2023-04-14T21:23:22.054Z,6.30
2023-04-14T21:25:50.165Z,6.30
2023-04-14T21:28:18.122Z,6.20
2023-04-14T21:30:46.103Z,6.20
2023-04-14T21:33:14.094Z,6.20
2023-04-14T21:35:43.480Z,6.20
2023-04-14T21:38:11.403Z,6.20
2023-04-14T21:40:39.536Z,6.10
2023-04-14T21:43:07.450Z,6.10
2023-04-14T21:45:36.059Z,6.10
2023-04-14T21:48:04.121Z,6.10
2023-04-14T21:50:33.283Z,6.10
2023-04-14T21:53:04.173Z,6.10
2023-04-14T21:55:32.432Z,6.10
2023-04-14T21:58:02.408Z,6.10
2023-04-14T22:00:31.139Z,6.00
2023-04-14T22:02:59.270Z,6.00
2023-04-14T22:05:27.505Z,6.00
2023-04-14T22:07:55.471Z,5.90
2023-04-14T22:10:31.697Z,5.90
2023-04-14T22:13:00.661Z,5.90
2023-04-14T22:15:29.412Z,5.90
2023-04-14T22:17:58.466Z,6.00
2023-04-14T22:20:26.771Z,6.00
2023-04-14T22:22:54.686Z,6.00
2023-04-14T22:25:24.554Z,6.00
2023-04-14T22:27:52.539Z,5.90
2023-04-14T22:30:20.677Z,5.90
2023-04-14T22:32:48.878Z,6.00
2023-04-14T22:35:17.366Z,6.00
2023-04-14T22:37:45.326Z,6.00
2023-04-14T22:40:13.667Z,5.90
2023-04-14T22:42:42.896Z,5.90
2023-04-14T22:45:11.088Z,6.00
2023-04-14T22:47:39.071Z,5.90
2023-04-14T22:50:09.035Z,5.90
2023-04-14T22:52:37.577Z,5.80
2023-04-14T22:55:06.683Z,5.80
2023-04-14T22:57:34.616Z,5.70
2023-04-14T23:00:09.066Z,5.60
2023-04-14T23:02:37.205Z,5.60
2023-04-14T23:05:06.714Z,5.50
2023-04-14T23:07:34.695Z,5.40
2023-04-14T23:10:03.266Z,5.30
2023-04-14T23:12:31.300Z,5.30
2023-04-14T23:14:59.340Z,5.30
2023-04-14T23:17:29.059Z,5.30
2023-04-14T23:19:57.048Z,5.30
2023-04-14T23:22:25.579Z,5.30
2023-04-14T23:24:53.534Z,5.30
2023-04-14T23:27:21.796Z,5.30
2023-04-14T23:29:49.819Z,5.20
2023-04-14T23:32:17.943Z,5.20
2023-04-14T23:34:47.281Z,5.20
2023-04-14T23:37:15.291Z,5.20
2023-04-14T23:39:43.178Z,5.10
2023-04-14T23:42:11.114Z,5.10
2023-04-14T23:44:39.191Z,5.10
2023-04-14T23:47:08.517Z,5.20
2023-04-14T23:49:37.018Z,5.10
2023-04-14T23:52:06.937Z,5.20
2023-04-14T23:54:34.881Z,5.20
2023-04-14T23:57:03.244Z,5.10
2023-04-14T23:59:31.220Z,5.10
